createdAt,value
2022-09-06T00:00:16.322Z,5.50
2022-09-06T00:02:46.788Z,4.33
2022-09-06T00:05:14.076Z,4.20
2022-09-06T00:07:42.384Z,2.17
2022-09-06T00:10:10.165Z,2.60
2022-09-06T00:12:38.410Z,1.00
2022-09-06T00:15:07.973Z,0.93
2022-09-06T00:17:35.151Z,1.60
2022-09-06T00:20:03.741Z,1.37
2022-09-06T00:22:31.076Z,1.00
2022-09-06T00:24:58.562Z,3.80
2022-09-06T00:27:25.799Z,5.43
2022-09-06T00:29:52.885Z,7.67
2022-09-06T00:32:20.062Z,6.40
2022-09-06T00:34:47.185Z,8.17
2022-09-06T00:37:14.385Z,3.57
2022-09-06T00:39:41.656Z,1.93
2022-09-06T00:42:12.996Z,1.23
2022-09-06T00:44:41.142Z,2.33
2022-09-06T00:47:08.953Z,1.00
2022-09-06T00:49:41.381Z,1.00
2022-09-06T00:52:10.796Z,0.90
2022-09-06T00:54:38.934Z,0.93
2022-09-06T00:57:07.402Z,0.90
2022-09-06T00:59:37.425Z,1.00
2022-09-06T01:02:06.382Z,1.07
2022-09-06T01:04:33.872Z,0.83
2022-09-06T01:07:16.002Z,2.47
2022-09-06T01:10:16.124Z,5.20
2022-09-06T01:13:09.673Z,7.40
2022-09-06T01:15:58.440Z,5.90
2022-09-06T01:18:47.208Z,6.63
2022-09-06T01:21:33.173Z,3.47
2022-09-06T01:24:19.514Z,1.40
2022-09-06T01:27:10.452Z,8.33
2022-09-06T01:29:45.903Z,1.03
2022-09-06T01:32:24.090Z,5.30
2022-09-06T01:35:13.211Z,8.70
2022-09-06T01:37:40.383Z,3.03
2022-09-06T01:40:08.258Z,0.87
2022-09-06T01:42:36.896Z,1.00
2022-09-06T01:45:15.505Z,1.37
2022-09-06T01:48:07.964Z,5.67
2022-09-06T01:50:46.640Z,0.97
2022-09-06T01:53:39.810Z,4.17
2022-09-06T01:56:07.010Z,1.03
2022-09-06T01:59:14.616Z,1.00
2022-09-06T02:02:26.842Z,2.10
2022-09-06T02:04:58.556Z,6.83
2022-09-06T02:07:28.194Z,6.10
2022-09-06T02:10:21.870Z,8.70
2022-09-06T02:12:53.634Z,9.47
2022-09-06T02:15:27.548Z,9.17
2022-09-06T02:18:10.424Z,6.80
2022-09-06T02:20:43.637Z,0.90
2022-09-06T02:23:11.166Z,2.70
2022-09-06T02:25:40.726Z,1.07
2022-09-06T02:28:09.002Z,1.50
2022-09-06T02:30:40.525Z,2.33
2022-09-06T02:33:11.510Z,0.90
2022-09-06T02:35:47.391Z,0.90
2022-09-06T02:38:15.053Z,3.77
2022-09-06T02:40:43.427Z,3.03
2022-09-06T02:43:10.739Z,2.33
2022-09-06T02:45:38.066Z,0.97
2022-09-06T02:48:05.718Z,1.37
2022-09-06T02:50:33.081Z,1.20
2022-09-06T02:53:12.380Z,1.33
2022-09-06T02:55:39.678Z,3.03
2022-09-06T02:58:08.746Z,0.90
2022-09-06T03:00:36.741Z,0.90
2022-09-06T03:03:05.411Z,1.50
2022-09-06T03:05:32.812Z,0.93
2022-09-06T03:08:00.027Z,1.50
2022-09-06T03:10:27.287Z,3.57
2022-09-06T03:12:54.742Z,7.37
2022-09-06T03:15:21.885Z,8.20
2022-09-06T03:17:49.383Z,9.57
2022-09-06T03:20:16.631Z,8.67
2022-09-06T03:22:45.013Z,5.00
2022-09-06T03:25:12.119Z,2.70
2022-09-06T03:27:39.566Z,1.83
2022-09-06T03:30:07.495Z,1.33
2022-09-06T03:32:35.048Z,1.20
2022-09-06T03:35:03.048Z,1.30
2022-09-06T03:37:30.192Z,1.00
2022-09-06T03:39:57.547Z,4.10
2022-09-06T03:42:26.825Z,7.07
2022-09-06T03:44:54.747Z,7.80
2022-09-06T03:47:21.861Z,9.20
2022-09-06T03:49:49.622Z,9.70
2022-09-06T03:52:16.825Z,9.90
2022-09-06T03:54:43.861Z,4.80
2022-09-06T03:57:12.782Z,7.23
2022-09-06T03:59:39.841Z,2.87
2022-09-06T04:02:07.454Z,1.10
2022-09-06T04:04:35.380Z,0.90
2022-09-06T04:07:02.602Z,1.33
2022-09-06T04:09:30.251Z,1.00
2022-09-06T04:11:57.417Z,3.40
2022-09-06T04:14:24.628Z,7.47
2022-09-06T04:16:52.730Z,9.23
2022-09-06T04:19:19.933Z,7.90
2022-09-06T04:21:47.417Z,9.77
2022-09-06T04:24:14.548Z,3.17
2022-09-06T04:26:41.715Z,2.37
2022-09-06T04:29:09.069Z,1.27
2022-09-06T04:31:38.969Z,1.00
2022-09-06T04:34:07.842Z,0.90
2022-09-06T04:36:35.028Z,1.13
2022-09-06T04:39:02.609Z,1.50
2022-09-06T04:41:30.048Z,1.00
2022-09-06T04:43:57.495Z,4.13
2022-09-06T04:46:25.614Z,8.03
2022-09-06T04:48:54.250Z,10.03
2022-09-06T04:51:22.167Z,7.60
2022-09-06T04:53:49.421Z,12.23
2022-09-06T04:56:22.478Z,9.13
2022-09-06T04:58:50.746Z,10.20
2022-09-06T05:01:18.597Z,10.37
2022-09-06T05:03:45.814Z,9.40
2022-09-06T05:06:26.608Z,7.63
2022-09-06T05:08:53.766Z,8.30
2022-09-06T05:11:21.186Z,6.93
2022-09-06T05:13:50.430Z,7.27
2022-09-06T05:16:18.438Z,9.80
2022-09-06T05:18:45.785Z,9.77
2022-09-06T05:21:12.947Z,8.13
2022-09-06T05:23:40.151Z,2.90
2022-09-06T05:26:08.014Z,0.97
2022-09-06T05:28:35.877Z,1.17
2022-09-06T05:31:07.587Z,1.43
2022-09-06T05:33:34.954Z,1.10
2022-09-06T05:36:03.435Z,1.40
2022-09-06T05:38:31.234Z,1.50
2022-09-06T05:40:58.511Z,2.50
2022-09-06T05:43:25.625Z,7.30
2022-09-06T05:45:53.076Z,10.27
2022-09-06T05:48:20.362Z,8.13
2022-09-06T05:50:47.536Z,9.33
2022-09-06T05:53:14.855Z,2.93
2022-09-06T05:55:43.139Z,2.33
2022-09-06T05:58:10.415Z,3.53
2022-09-06T06:00:38.007Z,1.00
2022-09-06T06:03:05.084Z,1.53
2022-09-06T06:05:32.192Z,1.20
2022-09-06T06:07:59.856Z,2.03
2022-09-06T06:10:27.104Z,4.13
2022-09-06T06:12:57.226Z,7.70
2022-09-06T06:15:24.327Z,7.07
2022-09-06T06:17:51.664Z,7.30
2022-09-06T06:20:18.818Z,7.90
2022-09-06T06:22:45.917Z,10.20
2022-09-06T06:25:13.235Z,8.03
2022-09-06T06:27:40.340Z,2.87
2022-09-06T06:30:08.258Z,0.97
2022-09-06T06:32:35.914Z,1.00
2022-09-06T06:35:03.308Z,1.40
2022-09-06T06:37:30.584Z,0.90
2022-09-06T06:39:58.399Z,3.53
2022-09-06T06:42:25.775Z,7.43
2022-09-06T06:44:55.640Z,9.83
2022-09-06T06:47:22.853Z,8.47
2022-09-06T06:49:49.958Z,8.50
2022-09-06T06:52:17.506Z,9.43
2022-09-06T06:54:44.665Z,3.23
2022-09-06T06:57:13.104Z,1.93
2022-09-06T06:59:40.165Z,2.80
2022-09-06T07:02:08.283Z,1.10
2022-09-06T07:04:35.581Z,1.10
2022-09-06T07:12:39.973Z,2.23
2022-09-06T07:15:08.594Z,0.97
2022-09-06T07:17:36.218Z,1.00
2022-09-06T07:20:18.919Z,1.33
2022-09-06T07:22:46.122Z,9.27
2022-09-06T07:25:19.044Z,7.03
2022-09-06T07:27:49.197Z,9.47
2022-09-06T07:30:17.463Z,9.53
2022-09-06T07:32:44.676Z,3.50
2022-09-06T07:35:14.128Z,1.80
2022-09-06T07:37:41.447Z,2.43
2022-09-06T07:40:09.444Z,1.30
2022-09-06T07:42:37.259Z,0.90
2022-09-06T07:45:05.555Z,1.30
2022-09-06T07:53:11.022Z,0.90
2022-09-06T07:55:43.769Z,6.73
2022-09-06T07:58:11.255Z,2.17
2022-09-06T08:00:41.317Z,1.00
2022-09-06T08:03:09.242Z,0.90
2022-09-06T08:11:13.921Z,5.20
2022-09-06T08:13:42.654Z,2.60
2022-09-06T08:16:11.585Z,1.57
2022-09-06T08:18:39.542Z,0.90
2022-09-06T08:21:12.571Z,1.00
2022-09-06T08:23:51.924Z,2.63
2022-09-06T08:26:21.017Z,7.27
2022-09-06T08:28:50.141Z,10.97
2022-09-06T08:31:18.276Z,7.40
2022-09-06T08:33:45.762Z,4.17
2022-09-06T08:36:12.849Z,3.97
2022-09-06T08:38:40.382Z,2.30
2022-09-06T08:41:16.953Z,0.87
2022-09-06T08:46:57.387Z,3.00
2022-09-06T08:49:26.510Z,6.30
2022-09-06T08:52:08.022Z,6.40
2022-09-06T08:54:41.703Z,0.90
2022-09-06T08:57:42.672Z,1.00
2022-09-06T09:00:12.032Z,1.63
2022-09-06T09:02:45.843Z,0.70
2022-09-06T09:05:40.229Z,3.97
2022-09-06T09:08:48.984Z,1.00
2022-09-06T09:11:19.622Z,9.03
2022-09-06T09:14:07.085Z,5.53
2022-09-06T09:16:34.703Z,1.00
2022-09-06T09:19:04.293Z,1.20
2022-09-06T09:21:35.063Z,0.80
2022-09-06T09:24:08.618Z,1.20
2022-09-06T09:27:07.317Z,0.80
2022-09-06T09:32:45.401Z,1.97
2022-09-06T09:35:17.122Z,2.10
2022-09-06T09:40:16.769Z,1.70
2022-09-06T09:42:44.981Z,4.33
2022-09-06T09:45:25.985Z,1.87
2022-09-06T09:47:53.800Z,5.70
2022-09-06T09:50:36.222Z,5.83
2022-09-06T09:53:14.885Z,1.03
2022-09-06T09:55:43.330Z,1.50
2022-09-06T09:58:35.397Z,2.17
2022-09-06T10:01:19.344Z,1.10
2022-09-06T10:09:35.900Z,5.50
2022-09-06T10:12:03.838Z,0.90
2022-09-06T10:14:47.082Z,0.90
2022-09-06T10:17:38.441Z,4.47
2022-09-06T10:20:14.976Z,0.80
2022-09-06T10:23:00.990Z,1.50
2022-09-06T10:25:53.946Z,2.70
2022-09-06T10:28:50.189Z,5.50
2022-09-06T10:31:43.678Z,5.20
2022-09-06T10:34:15.971Z,2.23
2022-09-06T10:37:29.621Z,3.40
2022-09-06T10:40:02.606Z,3.60
2022-09-06T10:42:49.382Z,1.00
2022-09-06T10:45:50.235Z,5.23
2022-09-06T10:48:25.004Z,5.33
2022-09-06T10:51:02.214Z,6.20
2022-09-06T10:53:35.574Z,1.77
2022-09-06T10:56:32.126Z,1.10
2022-09-06T11:02:17.741Z,6.70
2022-09-06T11:10:38.225Z,0.90
2022-09-06T11:13:19.634Z,0.97
2022-09-06T11:15:57.753Z,4.80
2022-09-06T11:18:40.231Z,5.00
2022-09-06T11:21:41.426Z,0.90
2022-09-06T11:24:17.892Z,0.70
2022-09-06T11:26:58.495Z,2.43
2022-09-06T11:29:30.196Z,5.13
2022-09-06T11:32:18.190Z,3.20
2022-09-06T11:34:59.806Z,2.33
2022-09-06T11:37:31.521Z,3.97
2022-09-06T11:42:50.285Z,5.97
2022-09-06T11:45:43.630Z,5.00
2022-09-06T11:48:34.531Z,1.90
2022-09-06T11:51:07.638Z,1.10
2022-09-06T11:53:49.239Z,0.77
2022-09-06T11:56:40.775Z,4.80
2022-09-06T11:59:24.719Z,0.80
2022-09-06T12:02:00.888Z,4.90
2022-09-06T12:05:00.413Z,2.43
2022-09-06T12:07:32.400Z,2.53
2022-09-06T12:10:03.001Z,1.57
2022-09-06T12:12:45.445Z,0.80
2022-09-06T12:15:42.961Z,1.57
2022-09-06T12:18:10.380Z,1.33
2022-09-06T12:20:49.542Z,0.80
2022-09-06T12:23:43.702Z,4.77
2022-09-06T12:26:12.091Z,1.60
2022-09-06T12:28:52.232Z,0.80
2022-09-06T12:31:21.961Z,7.63
2022-09-06T12:33:49.195Z,4.87
2022-09-06T12:36:19.783Z,4.60
2022-09-06T12:39:00.580Z,4.50
2022-09-06T12:41:30.083Z,2.40
2022-09-06T12:44:00.026Z,3.73
2022-09-06T12:46:29.633Z,3.43
2022-09-06T12:49:16.553Z,4.13
2022-09-06T12:51:43.937Z,4.17
2022-09-06T12:54:22.137Z,1.73
2022-09-06T12:56:50.205Z,5.40
2022-09-06T12:59:23.629Z,4.70
2022-09-06T13:02:00.735Z,5.03
2022-09-06T13:04:37.694Z,2.40
2022-09-06T13:07:05.606Z,1.07
2022-09-06T13:09:33.462Z,0.70
2022-09-06T13:12:07.806Z,1.17
2022-09-06T13:14:35.608Z,0.80
2022-09-06T13:17:03.157Z,1.03
2022-09-06T13:19:37.066Z,0.80
2022-09-06T13:22:08.934Z,1.07
2022-09-06T13:24:36.228Z,0.80
2022-09-06T13:27:31.183Z,1.07
2022-09-06T13:30:00.933Z,2.27
2022-09-06T13:32:28.507Z,2.40
2022-09-06T13:34:59.204Z,5.10
2022-09-06T13:37:39.641Z,4.40
2022-09-06T13:41:07.015Z,0.70
2022-09-06T13:43:29.349Z,1.73
2022-09-06T13:46:08.181Z,4.40
2022-09-06T13:48:36.624Z,0.80
2022-09-06T13:51:07.047Z,10.40
2022-09-06T13:53:35.039Z,1.40
2022-09-06T13:56:02.458Z,1.10
2022-09-06T13:58:29.901Z,1.53
2022-09-06T14:00:57.481Z,3.73
2022-09-06T14:03:29.218Z,4.33
2022-09-06T14:05:56.506Z,4.63
2022-09-06T14:08:24.647Z,4.87
2022-09-06T14:10:52.393Z,4.33
2022-09-06T14:13:19.659Z,5.00
2022-09-06T14:15:47.808Z,4.50
2022-09-06T14:18:15.567Z,3.20
2022-09-06T14:20:43.422Z,1.60
2022-09-06T14:23:10.528Z,1.57
2022-09-06T14:25:38.531Z,0.70
2022-09-06T14:28:05.662Z,0.70
2022-09-06T14:30:33.077Z,0.70
2022-09-06T14:33:00.535Z,1.20
2022-09-06T14:35:28.208Z,5.27
2022-09-06T14:37:55.361Z,5.97
2022-09-06T14:40:22.612Z,4.87
2022-09-06T14:42:50.646Z,8.03
2022-09-06T14:45:18.771Z,4.27
2022-09-06T14:47:46.143Z,3.20
2022-09-06T14:50:13.953Z,2.63
2022-09-06T14:52:41.178Z,1.90
2022-09-06T14:55:08.948Z,0.90
2022-09-06T14:57:36.322Z,1.77
2022-09-06T15:00:08.467Z,1.13
2022-09-06T15:02:35.953Z,0.83
2022-09-06T15:05:03.904Z,2.43
2022-09-06T15:07:32.028Z,1.67
2022-09-06T15:09:59.403Z,1.47
2022-09-06T15:12:26.555Z,4.40
2022-09-06T15:14:53.698Z,4.80
2022-09-06T15:17:20.857Z,5.13
2022-09-06T15:19:47.989Z,4.23
2022-09-06T15:22:15.063Z,2.80
2022-09-06T15:24:42.156Z,1.80
2022-09-06T15:27:09.268Z,1.37
2022-09-06T15:29:36.912Z,1.37
2022-09-06T15:32:04.120Z,1.00
2022-09-06T15:34:31.327Z,1.00
2022-09-06T15:36:58.479Z,2.13
2022-09-06T15:39:25.984Z,4.30
2022-09-06T15:41:53.416Z,4.30
2022-09-06T15:44:24.236Z,5.03
2022-09-06T15:46:54.100Z,4.23
2022-09-06T15:49:27.877Z,4.70
2022-09-06T15:51:57.315Z,5.37
2022-09-06T15:54:45.043Z,4.43
2022-09-06T15:57:13.406Z,1.43
2022-09-06T15:59:41.264Z,1.40
2022-09-06T16:02:09.439Z,1.00
2022-09-06T16:04:37.544Z,1.00
2022-09-06T16:07:04.653Z,1.23
2022-09-06T16:09:31.970Z,0.87
2022-09-06T16:11:59.322Z,2.20
2022-09-06T16:14:28.274Z,4.17
2022-09-06T16:16:56.487Z,5.53
2022-09-06T16:19:26.041Z,4.30
2022-09-06T16:21:53.278Z,4.67
2022-09-06T16:24:21.564Z,5.30
2022-09-06T16:26:48.917Z,5.20
2022-09-06T16:29:18.273Z,3.03
2022-09-06T16:31:45.947Z,2.50
2022-09-06T16:34:13.926Z,1.97
2022-09-06T16:36:41.769Z,1.87
2022-09-06T16:39:09.361Z,0.80
2022-09-06T16:41:44.433Z,1.00
2022-09-06T16:44:17.142Z,2.03
2022-09-06T16:46:46.150Z,3.83
2022-09-06T16:49:13.394Z,2.30
2022-09-06T16:51:40.597Z,1.63
2022-09-06T16:54:09.054Z,0.97
2022-09-06T16:56:37.366Z,1.00
2022-09-06T16:59:06.782Z,1.03
2022-09-06T17:01:34.896Z,0.90
2022-09-06T17:04:03.655Z,1.00
2022-09-06T17:06:31.697Z,1.03
2022-09-06T17:08:59.202Z,2.07
2022-09-06T17:11:28.012Z,5.23
2022-09-06T17:13:55.992Z,5.30
2022-09-06T17:16:41.809Z,4.73
2022-09-06T17:19:10.082Z,1.00
2022-09-06T17:21:39.350Z,1.17
2022-09-06T17:24:08.010Z,0.80
2022-09-06T17:26:37.582Z,0.70
2022-09-06T17:29:05.147Z,1.13
2022-09-06T17:31:32.429Z,0.83
2022-09-06T17:34:02.781Z,1.73
2022-09-06T17:36:32.144Z,1.53
2022-09-06T17:39:09.154Z,1.90
2022-09-06T17:41:42.099Z,0.90
2022-09-06T17:44:11.227Z,0.90
2022-09-06T17:46:51.984Z,0.80
2022-09-06T17:49:26.029Z,5.03
2022-09-06T17:51:53.475Z,5.57
2022-09-06T17:54:20.700Z,5.40
2022-09-06T17:56:47.844Z,5.03
2022-09-06T17:59:15.917Z,3.40
2022-09-06T18:01:45.574Z,1.83
2022-09-06T18:04:13.506Z,1.67
2022-09-06T18:06:42.540Z,1.47
2022-09-06T18:09:12.481Z,0.80
2022-09-06T18:11:40.294Z,0.90
2022-09-06T18:14:10.182Z,0.70
2022-09-06T18:16:39.099Z,0.80
2022-09-06T18:19:08.028Z,0.90
2022-09-06T18:21:39.619Z,1.00
2022-09-06T18:24:10.719Z,0.80
2022-09-06T18:26:38.309Z,0.90
2022-09-06T18:29:12.236Z,1.10
2022-09-06T18:31:40.334Z,0.90
2022-09-06T18:34:09.094Z,0.97
2022-09-06T18:36:37.439Z,0.90
2022-09-06T18:39:05.426Z,1.00
2022-09-06T18:41:51.833Z,1.07
2022-09-06T18:44:19.319Z,4.90
2022-09-06T18:46:46.648Z,2.80
2022-09-06T18:49:15.936Z,3.20
2022-09-06T18:51:44.522Z,1.83
2022-09-06T18:54:11.891Z,1.50
2022-09-06T18:56:39.721Z,0.80
2022-09-06T18:59:07.597Z,0.80
2022-09-06T19:01:35.337Z,0.73
2022-09-06T19:04:03.966Z,1.20
2022-09-06T19:06:32.866Z,0.80
2022-09-06T19:09:05.757Z,2.30
2022-09-06T19:11:33.336Z,0.80
2022-09-06T19:14:00.568Z,1.57
2022-09-06T19:16:29.241Z,4.70
2022-09-06T19:18:57.075Z,6.70
2022-09-06T19:21:25.905Z,5.33
2022-09-06T19:23:59.078Z,5.40
2022-09-06T19:26:28.178Z,5.70
2022-09-06T19:28:57.014Z,7.27
2022-09-06T19:31:25.578Z,5.80
2022-09-06T19:33:53.826Z,6.63
2022-09-06T19:36:22.128Z,5.90
2022-09-06T19:39:06.272Z,6.00
2022-09-06T19:41:38.942Z,0.80
2022-09-06T19:44:09.323Z,0.73
2022-09-06T19:46:38.871Z,0.80
2022-09-06T19:49:09.094Z,0.70
2022-09-06T19:51:37.984Z,1.17
2022-09-06T19:54:05.524Z,1.00
2022-09-06T19:56:34.549Z,0.90
2022-09-06T19:59:07.424Z,1.17
2022-09-06T20:01:38.049Z,0.80
2022-09-06T20:04:08.731Z,1.37
2022-09-06T20:06:37.235Z,2.03
2022-09-06T20:09:10.025Z,1.00
2022-09-06T20:11:39.411Z,1.40
2022-09-06T20:14:07.589Z,0.70
2022-09-06T20:16:39.387Z,0.80
2022-09-06T20:19:09.392Z,0.90
2022-09-06T20:21:37.379Z,0.90
2022-09-06T20:24:04.705Z,11.03
2022-09-06T20:26:32.034Z,0.90
2022-09-06T20:29:01.487Z,2.27
2022-09-06T20:31:30.820Z,2.90
2022-09-06T20:34:00.698Z,3.80
2022-09-06T20:36:28.002Z,5.67
2022-09-06T20:38:55.450Z,6.23
2022-09-06T20:41:24.817Z,6.10
2022-09-06T20:43:56.997Z,6.33
2022-09-06T20:46:26.333Z,6.03
2022-09-06T20:48:55.357Z,5.67
2022-09-06T20:51:24.088Z,5.90
2022-09-06T20:53:58.557Z,5.80
2022-09-06T20:56:31.324Z,5.97
2022-09-06T20:59:00.992Z,3.57
2022-09-06T21:01:30.610Z,5.67
2022-09-06T21:04:00.022Z,4.50
2022-09-06T21:06:29.651Z,8.27
2022-09-06T21:08:57.834Z,5.97
2022-09-06T21:11:25.430Z,5.90
2022-09-06T21:13:55.983Z,7.03
2022-09-06T21:16:25.063Z,5.77
2022-09-06T21:18:54.153Z,7.43
2022-09-06T21:21:22.404Z,6.37
2022-09-06T21:23:49.720Z,6.40
2022-09-06T21:26:17.590Z,4.83
2022-09-06T21:28:46.071Z,4.87
2022-09-06T21:31:18.898Z,2.00
2022-09-06T21:33:49.050Z,3.50
2022-09-06T21:36:18.534Z,2.70
2022-09-06T21:38:47.707Z,3.70
2022-09-06T21:41:17.576Z,4.77
2022-09-06T21:43:45.412Z,5.73
2022-09-06T21:46:18.614Z,1.77
2022-09-06T21:48:48.590Z,3.70
2022-09-06T21:51:17.809Z,2.67
2022-09-06T21:53:46.932Z,4.73
2022-09-06T21:56:14.561Z,5.37
2022-09-06T21:58:41.954Z,2.33
2022-09-06T22:01:09.411Z,0.80
2022-09-06T22:03:39.934Z,0.80
2022-09-06T22:06:30.749Z,0.87
2022-09-06T22:08:59.160Z,4.40
2022-09-06T22:11:29.827Z,6.53
2022-09-06T22:14:04.787Z,10.97
2022-09-06T22:16:34.991Z,1.67
2022-09-06T22:19:04.970Z,1.30
2022-09-06T22:21:33.049Z,0.90
2022-09-06T22:24:02.298Z,2.60
2022-09-06T22:26:32.149Z,2.30
2022-09-06T22:29:01.192Z,2.90
2022-09-06T22:31:30.302Z,2.93
2022-09-06T22:33:57.992Z,5.33
2022-09-06T22:36:25.730Z,6.13
2022-09-06T22:38:57.448Z,7.03
2022-09-06T22:41:26.623Z,8.07
2022-09-06T22:43:53.942Z,6.60
2022-09-06T22:46:21.546Z,7.80
2022-09-06T22:48:49.422Z,5.93
2022-09-06T22:51:17.227Z,3.20
2022-09-06T22:53:44.808Z,7.27
2022-09-06T22:56:11.967Z,2.33
2022-09-06T22:58:39.851Z,1.37
2022-09-06T23:01:11.757Z,0.80
2022-09-06T23:03:39.762Z,1.00
2022-09-06T23:06:07.950Z,0.90
2022-09-06T23:08:37.437Z,0.90
2022-09-06T23:11:09.840Z,1.30
2022-09-06T23:13:38.054Z,1.10
2022-09-06T23:16:07.326Z,1.17
2022-09-06T23:18:35.281Z,1.10
2022-09-06T23:21:14.308Z,1.73
2022-09-06T23:23:42.101Z,2.47
2022-09-06T23:26:15.321Z,0.73
2022-09-06T23:28:42.831Z,2.30
2022-09-06T23:31:11.946Z,0.80
2022-09-06T23:33:39.735Z,0.87
2022-09-06T23:36:09.657Z,2.70
2022-09-06T23:38:39.062Z,0.90
2022-09-06T23:41:06.743Z,10.97
2022-09-06T23:43:33.860Z,0.80
2022-09-06T23:46:01.044Z,2.60
2022-09-06T23:48:28.705Z,3.83
2022-09-06T23:50:55.899Z,8.10
2022-09-06T23:53:23.368Z,6.60
2022-09-06T23:55:50.637Z,9.57
2022-09-06T23:58:17.865Z,6.00
